Gill, MA (01354)

2:58 PM EDT on April 27, 2015 (GMT -0400)
Weather at NMH | | Change Station
CLOSE
Current Station
Personal Weather Station
Location: Northfield Mount Hermon, MA
Elevation: 436 ft
Nearby Weather Stations

Elev 436 ft 42.67 °N, 72.48 °W | Updated 7 seconds ago

Overcast
Overcast
54.5 °F
Feels Like 54.5 °F
N
12.0
Wind Variable Wind from NW
Gusts 20.0 mph

Today
High -- | Low -- °F
--% Chance of Precip.
Yesterday
High -- | Low -- °F
Precip. -- in
5:50 AM 7:45 PM
Waxing Gibbous, 67% visible
Pressure 29.60 in
Visibility 10.0 miles
Clouds Mostly Cloudy 4700 ft
Overcast 5500 ft
Dew Point 37 °F
Humidity 51%
Rainfall 0.00 in
Snow Depth Not available.
UV 2 out of 12
Pollen 10.00 out of 12
Air Quality Not available.
Flu Activity Widespread
METAR KORE 271852Z AUTO 34011G24KT 10SM BKN047 OVC055 12/01 A2959 RMK AO2 PK WND 35026/1824 SLP021 T01220011

More Conditions Fewer Conditions

Pressure 29.60 in
Visibility 10.0 miles
Clouds Mostly Cloudy 4700 ft
Overcast 5500 ft
Dew Point 37 °F
Humidity 51%
Rainfall 0.00 in
Snow Depth Not available.
UV 2 out of 12
Pollen 10.00 out of 12
Air Quality Not available.
Flu Activity Widespread
METAR KORE 271852Z AUTO 34011G24KT 10SM BKN047 OVC055 12/01 A2959 RMK AO2 PK WND 35026/1824 SLP021 T01220011

More Conditions Fewer Conditions

10-Day Weather Forecast

Almanac

Astronomy

Apr. 27, 2015 Rise Set
Actual Time
Civil Twilight
Nautical Twilight
Astronomical Twilight
Moon
Length of Visible Light
Length of Day
Tomorrow will be .
, % of the Moon is Illuminated

Today's Extremes

State Highs State Lows

Community

WunderPhotos

Upload Photos

1,817,398 photos uploaded!

WunderBlogs® & News

Nearby

Air Quality

  Air Quality AQ Index Pollutant
Not available.

Snow Depth

Station Depth Elevation

Earthquake Activity

City Distance Mag. Time & Date
Minimum magnitude displayed is 2.5.

Coastal Water Temperatures

Place Temperature

Stations

Nearby Weather Stations

Station Location Temp. Windchill Dew Point Humidity Wind Precip. Elev Updated Type